sensor_id;sensor_type;location;lat;lon;timestamp;P1;durP1;ratioP1;P2;durP2;ratioP2
59458;SDS011;45269;43.568;22.244;2024-01-30T00:00:58;76.50;;;65.97;;
59458;SDS011;45269;43.568;22.244;2024-01-30T00:03:24;85.13;;;75.35;;
59458;SDS011;45269;43.568;22.244;2024-01-30T00:05:49;135.65;;;110.88;;
59458;SDS011;45269;43.568;22.244;2024-01-30T00:08:14;145.98;;;118.45;;
59458;SDS011;45269;43.568;22.244;2024-01-30T00:10:40;169.88;;;119.85;;
59458;SDS011;45269;43.568;22.244;2024-01-30T00:13:05;110.15;;;89.45;;
59458;SDS011;45269;43.568;22.244;2024-01-30T00:15:30;107.80;;;87.20;;
59458;SDS011;45269;43.568;22.244;2024-01-30T00:17:56;102.45;;;81.43;;
59458;SDS011;45269;43.568;22.244;2024-01-30T00:20:21;116.70;;;97.18;;
59458;SDS011;45269;43.568;22.244;2024-01-30T00:22:47;126.45;;;105.68;;
59458;SDS011;45269;43.568;22.244;2024-01-30T00:25:13;133.10;;;111.25;;
59458;SDS011;45269;43.568;22.244;2024-01-30T00:27:38;83.25;;;70.57;;
59458;SDS011;45269;43.568;22.244;2024-01-30T00:30:03;83.47;;;67.55;;
59458;SDS011;45269;43.568;22.244;2024-01-30T00:32:30;83.43;;;73.28;;
59458;SDS011;45269;43.568;22.244;2024-01-30T00:34:55;90.97;;;78.97;;
59458;SDS011;45269;43.568;22.244;2024-01-30T00:37:20;87.40;;;75.97;;
59458;SDS011;45269;43.568;22.244;2024-01-30T00:39:46;81.80;;;68.97;;
59458;SDS011;45269;43.568;22.244;2024-01-30T00:42:11;70.28;;;61.60;;
59458;SDS011;45269;43.568;22.244;2024-01-30T00:44:36;86.60;;;70.05;;
59458;SDS011;45269;43.568;22.244;2024-01-30T00:47:05;85.53;;;71.93;;
59458;SDS011;45269;43.568;22.244;2024-01-30T00:49:30;108.93;;;88.05;;
59458;SDS011;45269;43.568;22.244;2024-01-30T00:51:55;106.38;;;86.35;;
59458;SDS011;45269;43.568;22.244;2024-01-30T00:54:21;90.63;;;75.38;;
59458;SDS011;45269;43.568;22.244;2024-01-30T00:56:46;86.90;;;74.40;;
59458;SDS011;45269;43.568;22.244;2024-01-30T00:59:11;104.43;;;84.20;;
59458;SDS011;45269;43.568;22.244;2024-01-30T01:01:37;81.13;;;65.30;;
59458;SDS011;45269;43.568;22.244;2024-01-30T01:04:02;95.30;;;79.35;;
59458;SDS011;45269;43.568;22.244;2024-01-30T01:06:28;97.68;;;76.43;;
59458;SDS011;45269;43.568;22.244;2024-01-30T01:08:53;118.50;;;93.57;;
59458;SDS011;45269;43.568;22.244;2024-01-30T01:11:18;183.75;;;138.32;;
59458;SDS011;45269;43.568;22.244;2024-01-30T01:13:43;190.88;;;138.70;;
59458;SDS011;45269;43.568;22.244;2024-01-30T01:16:09;108.10;;;81.90;;
59458;SDS011;45269;43.568;22.244;2024-01-30T01:18:34;127.15;;;100.68;;
59458;SDS011;45269;43.568;22.244;2024-01-30T01:20:59;109.50;;;86.35;;
59458;SDS011;45269;43.568;22.244;2024-01-30T01:23:25;87.70;;;72.32;;
59458;SDS011;45269;43.568;22.244;2024-01-30T01:25:51;88.68;;;74.10;;
59458;SDS011;45269;43.568;22.244;2024-01-30T01:28:16;90.50;;;75.30;;
59458;SDS011;45269;43.568;22.244;2024-01-30T01:30:41;136.20;;;109.80;;
59458;SDS011;45269;43.568;22.244;2024-01-30T01:33:07;138.68;;;113.05;;
59458;SDS011;45269;43.568;22.244;2024-01-30T01:35:32;124.35;;;99.53;;
59458;SDS011;45269;43.568;22.244;2024-01-30T01:37:58;106.20;;;89.68;;
59458;SDS011;45269;43.568;22.244;2024-01-30T01:40:25;95.32;;;79.93;;
59458;SDS011;45269;43.568;22.244;2024-01-30T01:42:51;105.40;;;88.25;;
59458;SDS011;45269;43.568;22.244;2024-01-30T01:45:19;114.38;;;92.82;;
59458;SDS011;45269;43.568;22.244;2024-01-30T01:47:46;128.82;;;102.68;;
59458;SDS011;45269;43.568;22.244;2024-01-30T01:50:12;132.43;;;108.03;;
59458;SDS011;45269;43.568;22.244;2024-01-30T01:52:38;161.07;;;127.97;;
59458;SDS011;45269;43.568;22.244;2024-01-30T01:55:05;139.45;;;112.88;;
59458;SDS011;45269;43.568;22.244;2024-01-30T01:57:30;145.85;;;118.45;;
59458;SDS011;45269;43.568;22.244;2024-01-30T01:59:56;118.78;;;96.35;;
59458;SDS011;45269;43.568;22.244;2024-01-30T02:02:21;89.47;;;73.63;;
59458;SDS011;45269;43.568;22.244;2024-01-30T02:04:48;66.70;;;56.72;;
59458;SDS011;45269;43.568;22.244;2024-01-30T02:07:14;59.63;;;50.30;;
59458;SDS011;45269;43.568;22.244;2024-01-30T02:09:39;62.50;;;52.67;;
59458;SDS011;45269;43.568;22.244;2024-01-30T02:12:04;70.20;;;55.75;;
59458;SDS011;45269;43.568;22.244;2024-01-30T02:14:30;78.72;;;61.95;;
59458;SDS011;45269;43.568;22.244;2024-01-30T02:16:55;92.03;;;75.05;;
59458;SDS011;45269;43.568;22.244;2024-01-30T02:19:20;142.75;;;109.75;;
59458;SDS011;45269;43.568;22.244;2024-01-30T02:21:46;128.70;;;104.13;;
59458;SDS011;45269;43.568;22.244;2024-01-30T02:24:11;156.35;;;122.85;;
59458;SDS011;45269;43.568;22.244;2024-01-30T02:26:36;136.75;;;106.35;;
59458;SDS011;45269;43.568;22.244;2024-01-30T02:29:02;103.70;;;85.00;;
59458;SDS011;45269;43.568;22.244;2024-01-30T02:31:27;103.68;;;85.25;;
59458;SDS011;45269;43.568;22.244;2024-01-30T02:33:52;93.20;;;77.53;;
59458;SDS011;45269;43.568;22.244;2024-01-30T02:36:18;91.47;;;75.85;;
59458;SDS011;45269;43.568;22.244;2024-01-30T02:38:43;78.40;;;66.07;;
59458;SDS011;45269;43.568;22.244;2024-01-30T02:41:08;88.03;;;71.55;;
59458;SDS011;45269;43.568;22.244;2024-01-30T02:43:34;125.50;;;100.95;;
59458;SDS011;45269;43.568;22.244;2024-01-30T02:45:59;105.90;;;89.15;;
59458;SDS011;45269;43.568;22.244;2024-01-30T02:48:26;79.85;;;62.22;;
59458;SDS011;45269;43.568;22.244;2024-01-30T02:50:51;58.90;;;49.05;;
59458;SDS011;45269;43.568;22.244;2024-01-30T02:53:17;66.25;;;54.38;;
59458;SDS011;45269;43.568;22.244;2024-01-30T02:55:42;80.68;;;65.28;;
59458;SDS011;45269;43.568;22.244;2024-01-30T02:58:07;88.85;;;73.07;;
59458;SDS011;45269;43.568;22.244;2024-01-30T03:00:33;81.82;;;66.63;;
59458;SDS011;45269;43.568;22.244;2024-01-30T03:02:59;81.47;;;67.03;;
59458;SDS011;45269;43.568;22.244;2024-01-30T03:05:24;75.53;;;62.75;;
59458;SDS011;45269;43.568;22.244;2024-01-30T03:07:50;75.80;;;62.00;;
59458;SDS011;45269;43.568;22.244;2024-01-30T03:10:15;73.57;;;60.85;;
59458;SDS011;45269;43.568;22.244;2024-01-30T03:12:40;108.80;;;91.80;;
59458;SDS011;45269;43.568;22.244;2024-01-30T03:15:06;106.22;;;84.78;;
59458;SDS011;45269;43.568;22.244;2024-01-30T03:17:31;90.35;;;74.20;;
59458;SDS011;45269;43.568;22.244;2024-01-30T03:19:57;86.57;;;67.53;;
59458;SDS011;45269;43.568;22.244;2024-01-30T03:22:22;107.70;;;85.07;;
59458;SDS011;45269;43.568;22.244;2024-01-30T03:24:48;122.30;;;97.75;;
59458;SDS011;45269;43.568;22.244;2024-01-30T03:27:13;99.30;;;83.70;;
59458;SDS011;45269;43.568;22.244;2024-01-30T03:29:38;91.22;;;75.60;;
59458;SDS011;45269;43.568;22.244;2024-01-30T03:32:04;85.85;;;70.78;;
59458;SDS011;45269;43.568;22.244;2024-01-30T03:34:29;93.07;;;74.63;;
59458;SDS011;45269;43.568;22.244;2024-01-30T03:36:55;89.78;;;72.93;;
59458;SDS011;45269;43.568;22.244;2024-01-30T03:39:20;86.88;;;70.45;;
59458;SDS011;45269;43.568;22.244;2024-01-30T03:41:45;90.03;;;73.68;;
59458;SDS011;45269;43.568;22.244;2024-01-30T03:44:11;88.13;;;72.60;;
59458;SDS011;45269;43.568;22.244;2024-01-30T03:46:36;108.72;;;90.10;;
59458;SDS011;45269;43.568;22.244;2024-01-30T03:49:02;160.23;;;134.07;;
59458;SDS011;45269;43.568;22.244;2024-01-30T03:51:27;129.43;;;107.25;;
59458;SDS011;45269;43.568;22.244;2024-01-30T03:53:52;84.35;;;66.50;;
59458;SDS011;45269;43.568;22.244;2024-01-30T03:56:18;56.40;;;50.33;;
59458;SDS011;45269;43.568;22.244;2024-01-30T03:58:43;68.40;;;62.17;;
59458;SDS011;45269;43.568;22.244;2024-01-30T04:01:12;111.82;;;89.30;;
59458;SDS011;45269;43.568;22.244;2024-01-30T04:03:38;139.68;;;102.47;;
59458;SDS011;45269;43.568;22.244;2024-01-30T04:06:03;138.82;;;98.38;;
59458;SDS011;45269;43.568;22.244;2024-01-30T04:08:29;134.98;;;100.65;;
59458;SDS011;45269;43.568;22.244;2024-01-30T04:10:54;129.85;;;97.53;;
59458;SDS011;45269;43.568;22.244;2024-01-30T04:13:20;104.50;;;81.45;;
59458;SDS011;45269;43.568;22.244;2024-01-30T04:15:45;95.85;;;81.22;;
59458;SDS011;45269;43.568;22.244;2024-01-30T04:18:11;74.25;;;58.97;;
59458;SDS011;45269;43.568;22.244;2024-01-30T04:20:36;49.53;;;40.47;;
59458;SDS011;45269;43.568;22.244;2024-01-30T04:23:01;50.70;;;43.55;;
59458;SDS011;45269;43.568;22.244;2024-01-30T04:25:27;57.00;;;46.65;;
59458;SDS011;45269;43.568;22.244;2024-01-30T04:27:52;63.75;;;51.95;;
59458;SDS011;45269;43.568;22.244;2024-01-30T04:30:17;61.95;;;53.38;;
59458;SDS011;45269;43.568;22.244;2024-01-30T04:32:43;56.47;;;45.83;;
59458;SDS011;45269;43.568;22.244;2024-01-30T04:35:08;52.17;;;45.65;;
59458;SDS011;45269;43.568;22.244;2024-01-30T04:37:34;48.03;;;40.38;;
59458;SDS011;45269;43.568;22.244;2024-01-30T04:39:59;67.35;;;54.08;;
59458;SDS011;45269;43.568;22.244;2024-01-30T04:42:25;67.10;;;54.25;;
59458;SDS011;45269;43.568;22.244;2024-01-30T04:44:50;95.55;;;78.70;;
59458;SDS011;45269;43.568;22.244;2024-01-30T04:47:15;90.88;;;75.93;;
59458;SDS011;45269;43.568;22.244;2024-01-30T04:49:41;74.75;;;64.30;;
59458;SDS011;45269;43.568;22.244;2024-01-30T04:52:07;75.53;;;57.97;;
59458;SDS011;45269;43.568;22.244;2024-01-30T04:54:32;69.30;;;57.10;;
59458;SDS011;45269;43.568;22.244;2024-01-30T04:56:58;61.97;;;52.38;;
59458;SDS011;45269;43.568;22.244;2024-01-30T04:59:23;66.75;;;53.63;;
59458;SDS011;45269;43.568;22.244;2024-01-30T05:01:49;213.73;;;194.65;;
59458;SDS011;45269;43.568;22.244;2024-01-30T05:04:14;77.05;;;68.95;;
59458;SDS011;45269;43.568;22.244;2024-01-30T05:06:39;57.00;;;50.90;;
59458;SDS011;45269;43.568;22.244;2024-01-30T05:09:05;50.03;;;44.42;;
59458;SDS011;45269;43.568;22.244;2024-01-30T05:11:30;51.22;;;38.47;;
59458;SDS011;45269;43.568;22.244;2024-01-30T05:13:56;93.43;;;81.30;;
59458;SDS011;45269;43.568;22.244;2024-01-30T05:16:21;53.60;;;47.80;;
59458;SDS011;45269;43.568;22.244;2024-01-30T05:18:46;59.58;;;50.33;;
59458;SDS011;45269;43.568;22.244;2024-01-30T05:21:12;57.40;;;47.85;;
59458;SDS011;45269;43.568;22.244;2024-01-30T05:23:37;65.00;;;53.97;;
59458;SDS011;45269;43.568;22.244;2024-01-30T05:26:02;128.18;;;96.70;;
59458;SDS011;45269;43.568;22.244;2024-01-30T05:28:31;106.55;;;83.45;;
59458;SDS011;45269;43.568;22.244;2024-01-30T05:30:56;128.60;;;96.68;;
59458;SDS011;45269;43.568;22.244;2024-01-30T05:33:22;212.25;;;161.90;;
59458;SDS011;45269;43.568;22.244;2024-01-30T05:35:47;176.57;;;135.55;;
59458;SDS011;45269;43.568;22.244;2024-01-30T05:38:13;150.48;;;116.18;;
59458;SDS011;45269;43.568;22.244;2024-01-30T05:40:38;107.07;;;83.93;;
59458;SDS011;45269;43.568;22.244;2024-01-30T05:43:04;167.48;;;123.10;;
59458;SDS011;45269;43.568;22.244;2024-01-30T05:45:29;212.98;;;156.27;;
59458;SDS011;45269;43.568;22.244;2024-01-30T05:47:54;222.60;;;159.75;;
59458;SDS011;45269;43.568;22.244;2024-01-30T05:50:20;219.63;;;155.82;;
59458;SDS011;45269;43.568;22.244;2024-01-30T05:52:48;215.73;;;158.45;;
59458;SDS011;45269;43.568;22.244;2024-01-30T05:55:13;297.92;;;223.15;;
59458;SDS011;45269;43.568;22.244;2024-01-30T05:57:39;239.95;;;180.98;;
59458;SDS011;45269;43.568;22.244;2024-01-30T06:00:05;275.23;;;208.85;;
59458;SDS011;45269;43.568;22.244;2024-01-30T06:02:30;259.23;;;194.05;;
59458;SDS011;45269;43.568;22.244;2024-01-30T06:04:56;255.43;;;194.07;;
59458;SDS011;45269;43.568;22.244;2024-01-30T06:07:21;231.00;;;175.80;;
59458;SDS011;45269;43.568;22.244;2024-01-30T06:09:47;206.15;;;154.93;;
59458;SDS011;45269;43.568;22.244;2024-01-30T06:12:12;180.93;;;131.85;;
59458;SDS011;45269;43.568;22.244;2024-01-30T06:14:38;182.30;;;147.38;;
59458;SDS011;45269;43.568;22.244;2024-01-30T06:17:03;386.30;;;301.70;;
59458;SDS011;45269;43.568;22.244;2024-01-30T06:19:29;331.35;;;251.55;;
59458;SDS011;45269;43.568;22.244;2024-01-30T06:21:55;251.32;;;185.73;;
59458;SDS011;45269;43.568;22.244;2024-01-30T06:24:20;279.27;;;219.63;;
59458;SDS011;45269;43.568;22.244;2024-01-30T06:26:45;300.38;;;234.70;;
59458;SDS011;45269;43.568;22.244;2024-01-30T06:29:11;530.33;;;444.45;;
59458;SDS011;45269;43.568;22.244;2024-01-30T06:31:40;430.73;;;350.90;;
59458;SDS011;45269;43.568;22.244;2024-01-30T06:34:05;344.42;;;276.17;;
59458;SDS011;45269;43.568;22.244;2024-01-30T06:36:30;340.05;;;277.05;;
59458;SDS011;45269;43.568;22.244;2024-01-30T06:38:56;277.85;;;220.98;;
59458;SDS011;45269;43.568;22.244;2024-01-30T06:41:21;218.00;;;188.50;;
59458;SDS011;45269;43.568;22.244;2024-01-30T06:43:46;190.32;;;164.25;;
59458;SDS011;45269;43.568;22.244;2024-01-30T06:46:12;212.77;;;162.93;;
59458;SDS011;45269;43.568;22.244;2024-01-30T06:48:38;344.20;;;271.80;;
59458;SDS011;45269;43.568;22.244;2024-01-30T06:51:05;356.55;;;289.50;;
59458;SDS011;45269;43.568;22.244;2024-01-30T06:53:30;624.10;;;503.33;;
59458;SDS011;45269;43.568;22.244;2024-01-30T06:55:56;524.45;;;420.77;;
59458;SDS011;45269;43.568;22.244;2024-01-30T06:58:21;414.52;;;326.30;;
59458;SDS011;45269;43.568;22.244;2024-01-30T07:00:46;477.58;;;364.30;;
59458;SDS011;45269;43.568;22.244;2024-01-30T07:03:12;618.80;;;487.90;;
59458;SDS011;45269;43.568;22.244;2024-01-30T07:05:37;449.92;;;343.88;;
59458;SDS011;45269;43.568;22.244;2024-01-30T07:08:02;715.05;;;584.55;;
59458;SDS011;45269;43.568;22.244;2024-01-30T07:10:28;542.78;;;414.75;;
59458;SDS011;45269;43.568;22.244;2024-01-30T07:12:53;452.42;;;341.88;;
59458;SDS011;45269;43.568;22.244;2024-01-30T07:15:19;412.85;;;306.75;;
59458;SDS011;45269;43.568;22.244;2024-01-30T07:17:45;295.35;;;242.80;;
59458;SDS011;45269;43.568;22.244;2024-01-30T07:20:11;317.67;;;247.48;;
59458;SDS011;45269;43.568;22.244;2024-01-30T07:22:36;317.92;;;252.27;;
59458;SDS011;45269;43.568;22.244;2024-01-30T07:25:01;258.45;;;208.70;;
59458;SDS011;45269;43.568;22.244;2024-01-30T07:27:27;275.38;;;217.77;;
59458;SDS011;45269;43.568;22.244;2024-01-30T07:29:52;216.93;;;170.88;;
59458;SDS011;45269;43.568;22.244;2024-01-30T07:32:17;167.52;;;133.90;;
59458;SDS011;45269;43.568;22.244;2024-01-30T07:34:43;156.57;;;124.75;;
59458;SDS011;45269;43.568;22.244;2024-01-30T07:37:09;132.07;;;104.00;;
59458;SDS011;45269;43.568;22.244;2024-01-30T07:39:35;122.82;;;103.97;;
59458;SDS011;45269;43.568;22.244;2024-01-30T07:42:01;325.65;;;206.40;;
59458;SDS011;45269;43.568;22.244;2024-01-30T07:44:26;327.33;;;236.90;;
59458;SDS011;45269;43.568;22.244;2024-01-30T07:46:51;170.43;;;130.38;;
59458;SDS011;45269;43.568;22.244;2024-01-30T07:49:17;192.00;;;159.45;;
59458;SDS011;45269;43.568;22.244;2024-01-30T07:51:42;127.28;;;109.40;;
59458;SDS011;45269;43.568;22.244;2024-01-30T07:54:08;110.95;;;98.88;;
59458;SDS011;45269;43.568;22.244;2024-01-30T07:56:33;110.50;;;98.50;;
59458;SDS011;45269;43.568;22.244;2024-01-30T07:58:58;128.30;;;113.80;;
59458;SDS011;45269;43.568;22.244;2024-01-30T08:01:24;90.05;;;78.22;;
59458;SDS011;45269;43.568;22.244;2024-01-30T08:03:49;97.60;;;87.30;;
59458;SDS011;45269;43.568;22.244;2024-01-30T08:06:16;78.32;;;69.63;;
59458;SDS011;45269;43.568;22.244;2024-01-30T08:08:41;90.47;;;78.85;;
59458;SDS011;45269;43.568;22.244;2024-01-30T08:11:06;79.97;;;68.97;;
59458;SDS011;45269;43.568;22.244;2024-01-30T08:13:32;62.85;;;55.42;;
59458;SDS011;45269;43.568;22.244;2024-01-30T08:15:58;80.32;;;71.47;;
59458;SDS011;45269;43.568;22.244;2024-01-30T08:18:23;73.28;;;61.78;;
59458;SDS011;45269;43.568;22.244;2024-01-30T08:20:48;78.10;;;64.68;;
59458;SDS011;45269;43.568;22.244;2024-01-30T08:23:14;68.50;;;61.00;;
59458;SDS011;45269;43.568;22.244;2024-01-30T08:25:39;71.15;;;60.70;;
59458;SDS011;45269;43.568;22.244;2024-01-30T08:28:04;159.43;;;135.52;;
59458;SDS011;45269;43.568;22.244;2024-01-30T08:30:30;124.15;;;96.57;;
59458;SDS011;45269;43.568;22.244;2024-01-30T08:32:55;127.35;;;100.93;;
59458;SDS011;45269;43.568;22.244;2024-01-30T08:35:21;64.07;;;54.08;;
59458;SDS011;45269;43.568;22.244;2024-01-30T08:37:46;47.78;;;41.50;;
59458;SDS011;45269;43.568;22.244;2024-01-30T08:40:11;92.68;;;79.38;;
59458;SDS011;45269;43.568;22.244;2024-01-30T08:42:37;78.88;;;67.95;;
59458;SDS011;45269;43.568;22.244;2024-01-30T08:45:02;63.22;;;55.75;;
59458;SDS011;45269;43.568;22.244;2024-01-30T08:47:29;57.47;;;49.92;;
59458;SDS011;45269;43.568;22.244;2024-01-30T08:49:55;53.58;;;47.13;;
59458;SDS011;45269;43.568;22.244;2024-01-30T08:52:20;53.65;;;45.97;;
59458;SDS011;45269;43.568;22.244;2024-01-30T08:54:45;69.07;;;60.92;;
59458;SDS011;45269;43.568;22.244;2024-01-30T08:57:11;53.65;;;47.92;;
59458;SDS011;45269;43.568;22.244;2024-01-30T08:59:36;56.10;;;50.00;;
59458;SDS011;45269;43.568;22.244;2024-01-30T09:02:01;64.72;;;57.70;;
59458;SDS011;45269;43.568;22.244;2024-01-30T09:04:28;81.53;;;70.85;;
59458;SDS011;45269;43.568;22.244;2024-01-30T09:06:53;69.03;;;60.47;;
59458;SDS011;45269;43.568;22.244;2024-01-30T09:09:19;83.60;;;74.57;;
59458;SDS011;45269;43.568;22.244;2024-01-30T09:11:44;74.63;;;64.75;;
59458;SDS011;45269;43.568;22.244;2024-01-30T09:14:09;131.38;;;110.22;;
59458;SDS011;45269;43.568;22.244;2024-01-30T09:16:35;130.80;;;112.47;;
59458;SDS011;45269;43.568;22.244;2024-01-30T09:19:00;163.30;;;140.05;;
59458;SDS011;45269;43.568;22.244;2024-01-30T09:21:26;98.20;;;83.10;;
59458;SDS011;45269;43.568;22.244;2024-01-30T09:23:53;102.35;;;91.35;;
59458;SDS011;45269;43.568;22.244;2024-01-30T09:26:19;94.38;;;84.38;;
59458;SDS011;45269;43.568;22.244;2024-01-30T09:28:44;80.20;;;71.65;;
59458;SDS011;45269;43.568;22.244;2024-01-30T09:31:10;76.60;;;68.40;;
59458;SDS011;45269;43.568;22.244;2024-01-30T09:33:35;110.03;;;98.28;;
59458;SDS011;45269;43.568;22.244;2024-01-30T09:36:01;72.88;;;64.22;;
59458;SDS011;45269;43.568;22.244;2024-01-30T09:38:26;79.10;;;70.68;;
59458;SDS011;45269;43.568;22.244;2024-01-30T09:40:53;64.93;;;57.90;;
59458;SDS011;45269;43.568;22.244;2024-01-30T09:43:21;65.18;;;58.20;;
59458;SDS011;45269;43.568;22.244;2024-01-30T09:45:47;83.78;;;72.35;;
59458;SDS011;45269;43.568;22.244;2024-01-30T09:48:14;101.55;;;91.70;;
59458;SDS011;45269;43.568;22.244;2024-01-30T09:50:40;68.78;;;61.63;;
59458;SDS011;45269;43.568;22.244;2024-01-30T09:53:05;69.80;;;62.42;;
59458;SDS011;45269;43.568;22.244;2024-01-30T09:55:31;62.45;;;55.45;;
59458;SDS011;45269;43.568;22.244;2024-01-30T09:57:57;57.58;;;51.25;;
59458;SDS011;45269;43.568;22.244;2024-01-30T10:00:22;53.30;;;46.40;;
59458;SDS011;45269;43.568;22.244;2024-01-30T10:02:52;66.75;;;59.42;;
59458;SDS011;45269;43.568;22.244;2024-01-30T10:05:17;72.85;;;64.97;;
59458;SDS011;45269;43.568;22.244;2024-01-30T10:07:53;56.50;;;50.47;;
59458;SDS011;45269;43.568;22.244;2024-01-30T10:10:21;62.55;;;55.95;;
59458;SDS011;45269;43.568;22.244;2024-01-30T10:12:46;50.28;;;44.80;;
59458;SDS011;45269;43.568;22.244;2024-01-30T10:15:11;66.88;;;59.83;;
59458;SDS011;45269;43.568;22.244;2024-01-30T10:17:38;57.70;;;51.63;;
59458;SDS011;45269;43.568;22.244;2024-01-30T10:20:06;66.38;;;55.67;;
59458;SDS011;45269;43.568;22.244;2024-01-30T10:22:33;53.72;;;48.03;;
59458;SDS011;45269;43.568;22.244;2024-01-30T10:24:58;63.55;;;53.83;;
59458;SDS011;45269;43.568;22.244;2024-01-30T10:27:27;56.55;;;50.28;;
59458;SDS011;45269;43.568;22.244;2024-01-30T10:29:54;78.47;;;65.07;;
59458;SDS011;45269;43.568;22.244;2024-01-30T10:32:20;69.80;;;59.63;;
59458;SDS011;45269;43.568;22.244;2024-01-30T10:34:46;70.82;;;61.28;;
59458;SDS011;45269;43.568;22.244;2024-01-30T10:37:11;68.60;;;56.83;;
59458;SDS011;45269;43.568;22.244;2024-01-30T10:39:45;71.80;;;59.15;;
59458;SDS011;45269;43.568;22.244;2024-01-30T10:42:15;124.00;;;102.82;;
59458;SDS011;45269;43.568;22.244;2024-01-30T10:47:28;106.80;;;93.85;;
59458;SDS011;45269;43.568;22.244;2024-01-30T10:49:56;56.42;;;50.38;;
59458;SDS011;45269;43.568;22.244;2024-01-30T10:52:25;54.83;;;48.25;;
59458;SDS011;45269;43.568;22.244;2024-01-30T10:54:51;152.50;;;95.55;;
59458;SDS011;45269;43.568;22.244;2024-01-30T10:57:16;68.10;;;58.03;;
59458;SDS011;45269;43.568;22.244;2024-01-30T10:59:42;76.43;;;63.78;;
59458;SDS011;45269;43.568;22.244;2024-01-30T11:02:08;49.63;;;44.45;;
59458;SDS011;45269;43.568;22.244;2024-01-30T11:04:38;46.58;;;41.60;;
59458;SDS011;45269;43.568;22.244;2024-01-30T11:07:23;43.80;;;39.43;;
59458;SDS011;45269;43.568;22.244;2024-01-30T11:09:52;44.65;;;39.95;;
59458;SDS011;45269;43.568;22.244;2024-01-30T11:12:21;59.75;;;53.63;;
59458;SDS011;45269;43.568;22.244;2024-01-30T11:14:46;69.25;;;61.92;;
59458;SDS011;45269;43.568;22.244;2024-01-30T11:17:12;46.85;;;42.20;;
59458;SDS011;45269;43.568;22.244;2024-01-30T11:19:37;221.68;;;142.35;;
59458;SDS011;45269;43.568;22.244;2024-01-30T11:22:03;85.78;;;70.35;;
59458;SDS011;45269;43.568;22.244;2024-01-30T11:24:29;40.67;;;36.55;;
59458;SDS011;45269;43.568;22.244;2024-01-30T11:26:55;39.42;;;34.97;;
59458;SDS011;45269;43.568;22.244;2024-01-30T11:29:24;39.83;;;35.80;;
59458;SDS011;45269;43.568;22.244;2024-01-30T11:31:56;37.60;;;33.90;;
59458;SDS011;45269;43.568;22.244;2024-01-30T11:34:22;54.97;;;45.03;;
59458;SDS011;45269;43.568;22.244;2024-01-30T11:36:50;47.35;;;40.13;;
59458;SDS011;45269;43.568;22.244;2024-01-30T11:41:42;64.93;;;53.60;;
59458;SDS011;45269;43.568;22.244;2024-01-30T11:44:08;45.35;;;40.63;;
59458;SDS011;45269;43.568;22.244;2024-01-30T11:46:34;37.97;;;30.60;;
59458;SDS011;45269;43.568;22.244;2024-01-30T11:49:00;28.20;;;24.58;;
59458;SDS011;45269;43.568;22.244;2024-01-30T11:51:25;68.30;;;48.92;;
59458;SDS011;45269;43.568;22.244;2024-01-30T11:53:51;23.95;;;21.33;;
59458;SDS011;45269;43.568;22.244;2024-01-30T11:56:16;24.48;;;21.65;;
59458;SDS011;45269;43.568;22.244;2024-01-30T11:58:42;15.20;;;13.90;;
59458;SDS011;45269;43.568;22.244;2024-01-30T12:01:07;16.70;;;15.10;;
59458;SDS011;45269;43.568;22.244;2024-01-30T12:03:33;18.73;;;16.92;;
59458;SDS011;45269;43.568;22.244;2024-01-30T12:05:58;38.00;;;30.95;;
59458;SDS011;45269;43.568;22.244;2024-01-30T12:08:23;56.38;;;37.70;;
59458;SDS011;45269;43.568;22.244;2024-01-30T12:10:55;82.57;;;50.75;;
59458;SDS011;45269;43.568;22.244;2024-01-30T12:13:21;23.17;;;20.02;;
59458;SDS011;45269;43.568;22.244;2024-01-30T12:15:47;19.50;;;17.60;;
59458;SDS011;45269;43.568;22.244;2024-01-30T12:18:12;30.92;;;27.70;;
59458;SDS011;45269;43.568;22.244;2024-01-30T12:20:37;39.25;;;33.92;;
59458;SDS011;45269;43.568;22.244;2024-01-30T12:23:03;22.58;;;20.27;;
59458;SDS011;45269;43.568;22.244;2024-01-30T12:25:28;48.72;;;38.65;;
59458;SDS011;45269;43.568;22.244;2024-01-30T12:27:54;21.08;;;18.92;;
59458;SDS011;45269;43.568;22.244;2024-01-30T12:30:19;57.15;;;47.38;;
59458;SDS011;45269;43.568;22.244;2024-01-30T12:32:45;23.98;;;21.55;;
59458;SDS011;45269;43.568;22.244;2024-01-30T12:35:15;37.08;;;32.63;;
59458;SDS011;45269;43.568;22.244;2024-01-30T12:37:40;19.70;;;17.80;;
59458;SDS011;45269;43.568;22.244;2024-01-30T12:40:07;16.13;;;14.73;;
59458;SDS011;45269;43.568;22.244;2024-01-30T12:42:33;19.70;;;17.80;;
59458;SDS011;45269;43.568;22.244;2024-01-30T12:44:58;21.85;;;19.88;;
59458;SDS011;45269;43.568;22.244;2024-01-30T12:47:24;23.05;;;20.42;;
59458;SDS011;45269;43.568;22.244;2024-01-30T12:49:50;23.02;;;20.88;;
59458;SDS011;45269;43.568;22.244;2024-01-30T12:52:18;20.75;;;18.65;;
59458;SDS011;45269;43.568;22.244;2024-01-30T12:54:44;15.27;;;14.07;;
59458;SDS011;45269;43.568;22.244;2024-01-30T12:57:09;21.48;;;19.58;;
59458;SDS011;45269;43.568;22.244;2024-01-30T12:59:35;16.52;;;15.23;;
59458;SDS011;45269;43.568;22.244;2024-01-30T13:02:00;19.42;;;17.95;;
59458;SDS011;45269;43.568;22.244;2024-01-30T13:04:27;15.02;;;13.90;;
59458;SDS011;45269;43.568;22.244;2024-01-30T13:06:52;16.33;;;14.80;;
59458;SDS011;45269;43.568;22.244;2024-01-30T13:09:17;14.32;;;13.10;;
59458;SDS011;45269;43.568;22.244;2024-01-30T13:11:43;25.27;;;22.95;;
59458;SDS011;45269;43.568;22.244;2024-01-30T13:14:08;15.85;;;14.65;;
59458;SDS011;45269;43.568;22.244;2024-01-30T13:16:33;19.25;;;17.73;;
59458;SDS011;45269;43.568;22.244;2024-01-30T13:18:59;21.25;;;19.50;;
59458;SDS011;45269;43.568;22.244;2024-01-30T13:21:26;18.77;;;17.38;;
59458;SDS011;45269;43.568;22.244;2024-01-30T13:23:51;14.88;;;13.73;;
59458;SDS011;45269;43.568;22.244;2024-01-30T13:26:19;24.55;;;22.55;;
59458;SDS011;45269;43.568;22.244;2024-01-30T13:28:44;18.35;;;16.85;;
59458;SDS011;45269;43.568;22.244;2024-01-30T13:31:10;22.58;;;20.77;;
59458;SDS011;45269;43.568;22.244;2024-01-30T13:33:35;20.63;;;18.83;;
59458;SDS011;45269;43.568;22.244;2024-01-30T13:36:00;17.55;;;16.15;;
59458;SDS011;45269;43.568;22.244;2024-01-30T13:38:26;17.40;;;16.05;;
59458;SDS011;45269;43.568;22.244;2024-01-30T13:40:51;16.02;;;14.98;;
59458;SDS011;45269;43.568;22.244;2024-01-30T13:43:17;15.98;;;14.88;;
59458;SDS011;45269;43.568;22.244;2024-01-30T13:45:43;16.30;;;15.00;;
59458;SDS011;45269;43.568;22.244;2024-01-30T13:48:08;15.60;;;14.40;;
59458;SDS011;45269;43.568;22.244;2024-01-30T13:50:33;28.55;;;25.85;;
59458;SDS011;45269;43.568;22.244;2024-01-30T13:52:59;19.40;;;17.63;;
59458;SDS011;45269;43.568;22.244;2024-01-30T13:55:24;24.13;;;21.63;;
59458;SDS011;45269;43.568;22.244;2024-01-30T13:57:50;22.70;;;20.70;;